Time;durP1;ratioP1;P1;durP2;ratioP2;P2;SDS_P1;SDS_P2;PMS_P1;PMS_P2;Temp;Humidity;BMP_temperature;BMP_pressure;BME280_temperature;BME280_humidity;BME280_pressure;Samples;Min_cycle;Max_cycle;Signal;HPM_P1;HPM_P2
2023/12/18 00:00:39;;;;;;;22.15;18.33;;;;;;;4.84;94.51;102090.88;10298950;28;20765;-67
2023/12/18 00:05:41;;;;;;;21.88;18.45;;;;;;;4.87;94.68;102077.59;10299597;28;20345;-67
2023/12/18 00:10:42;;;;;;;43.63;20.52;;;;;;;4.79;94.62;102074.31;10301808;28;20440;-68
2023/12/18 00:15:44;;;;;;;29.70;19.80;;;;;;;4.62;95.40;102068.59;10302318;28;20724;-67
2023/12/18 00:20:45;;;;;;;25.38;18.98;;;;;;;4.50;95.66;102041.63;10296785;28;20046;-66
2023/12/18 00:25:47;;;;;;;26.70;19.55;;;;;;;4.62;95.00;102058.06;10300794;28;20111;-67
2023/12/18 00:30:48;;;;;;;45.78;17.20;;;;;;;4.43;94.76;102062.03;10297974;28;20042;-67
2023/12/18 00:35:51;;;;;;;26.15;16.25;;;;;;;4.36;95.99;102049.06;10297058;28;20056;-68
2023/12/18 00:40:52;;;;;;;32.20;15.75;;;;;;;4.25;95.76;102060.75;10298899;28;20138;-66
2023/12/18 00:45:54;;;;;;;29.30;17.27;;;;;;;4.08;95.89;102041.84;10297533;28;20057;-67
2023/12/18 00:50:56;;;;;;;17.17;15.43;;;;;;;4.16;96.13;102052.19;10298757;28;20072;-67
2023/12/18 00:55:59;;;;;;;34.70;15.43;;;;;;;4.11;95.82;102049.66;10288269;28;20125;-68
2023/12/18 01:01:01;;;;;;;34.83;15.45;;;;;;;3.96;94.85;102047.41;10288006;28;20053;-68
2023/12/18 01:06:05;;;;;;;33.05;13.80;;;;;;;3.91;94.90;102057.22;10311220;28;20077;-66
2023/12/18 01:11:06;;;;;;;33.65;14.90;;;;;;;3.58;96.30;102043.91;10295096;28;20084;-69
2023/12/18 01:16:08;;;;;;;20.25;12.50;;;;;;;3.75;96.66;102047.00;10295120;28;20094;-68
2023/12/18 01:21:14;;;;;;;34.13;14.05;;;;;;;3.62;96.06;102056.09;10314861;28;20509;-67
2023/12/18 01:26:16;;;;;;;22.27;14.02;;;;;;;3.63;96.83;102052.56;10302340;28;20468;-67
2023/12/18 01:31:25;;;;;;;35.45;14.55;;;;;;;3.60;97.25;102063.16;10279126;28;20142;-68
2023/12/18 01:36:26;;;;;;;18.77;12.95;;;;;;;3.60;97.86;102050.00;10294590;28;20062;-67
2023/12/18 01:41:29;;;;;;;21.70;12.63;;;;;;;3.58;97.79;102041.28;10302966;28;20050;-67
2023/12/18 01:46:34;;;;;;;15.73;12.27;;;;;;;3.68;98.25;102058.63;10297223;28;20047;-68
2023/12/18 01:51:36;;;;;;;32.47;14.80;;;;;;;3.64;97.63;102034.09;10291620;28;20077;-68
2023/12/18 01:56:40;;;;;;;21.27;12.32;;;;;;;3.73;97.86;102043.56;10293481;28;20058;-68
2023/12/18 02:01:42;;;;;;;20.35;12.73;;;;;;;3.57;98.57;102031.63;10298954;28;20076;-68
2023/12/18 02:06:45;;;;;;;28.13;14.60;;;;;;;3.75;98.76;102047.00;10301601;28;20135;-67
2023/12/18 02:11:46;;;;;;;16.85;12.88;;;;;;;3.84;98.65;102056.47;10296245;28;20050;-66
2023/12/18 02:16:48;;;;;;;28.05;12.63;;;;;;;3.93;98.01;102060.66;10292650;28;20049;-66
2023/12/18 02:21:49;;;;;;;17.50;12.93;;;;;;;3.84;98.49;102025.75;10304277;28;20570;-66
2023/12/18 02:26:51;;;;;;;21.77;13.70;;;;;;;3.87;97.09;102046.75;10288200;28;20046;-67
2023/12/18 02:31:52;;;;;;;23.25;12.30;;;;;;;3.75;98.50;102041.75;10291767;28;20493;-66
2023/12/18 02:36:54;;;;;;;26.63;12.32;;;;;;;3.68;99.83;102045.44;10296668;28;20057;-67
2023/12/18 02:42:03;;;;;;;23.30;12.95;;;;;;;3.65;100.00;102034.97;10286800;28;20054;-67
2023/12/18 02:47:05;;;;;;;26.65;14.43;;;;;;;3.76;100.00;102032.09;10286431;28;20064;-66
2023/12/18 02:52:06;;;;;;;36.70;14.23;;;;;;;3.75;100.00;102041.75;10321928;28;20057;-67
2023/12/18 02:57:07;;;;;;;40.70;14.63;;;;;;;3.67;100.00;102035.81;10312886;28;20052;-66
2023/12/18 03:02:09;;;;;;;21.67;13.77;;;;;;;3.58;100.00;102031.59;10303394;28;20128;-67
2023/12/18 03:07:12;;;;;;;27.25;14.57;;;;;;;3.58;100.00;102002.63;10307173;28;20046;-65
2023/12/18 03:12:14;;;;;;;21.65;14.52;;;;;;;3.60;100.00;102023.66;10302602;28;20155;-66
2023/12/18 03:17:15;;;;;;;31.85;14.52;;;;;;;3.66;100.00;102003.34;10292167;28;20057;-67
2023/12/18 03:22:17;;;;;;;16.67;12.32;;;;;;;3.78;100.00;102017.97;10300404;28;20058;-65
2023/12/18 03:27:18;;;;;;;22.05;13.15;;;;;;;3.76;100.00;101998.69;10300967;28;20716;-66
2023/12/18 03:32:19;;;;;;;26.67;13.45;;;;;;;3.85;100.00;102009.00;10304311;28;20123;-66
2023/12/18 03:37:21;;;;;;;17.23;12.98;;;;;;;3.86;100.00;102023.91;10297010;28;20088;-66
2023/12/18 03:42:22;;;;;;;24.30;12.43;;;;;;;3.94;100.00;102009.69;10286963;28;20058;-67
2023/12/18 03:47:24;;;;;;;18.77;13.10;;;;;;;3.93;100.00;102007.97;10316120;28;20529;-67
2023/12/18 03:52:26;;;;;;;17.50;11.32;;;;;;;3.70;100.00;101996.22;10297153;28;20108;-65
2023/12/18 03:57:27;;;;;;;20.10;12.00;;;;;;;3.55;100.00;102005.34;10295681;28;20052;-67
2023/12/18 04:02:28;;;;;;;28.02;14.75;;;;;;;3.57;100.00;101994.78;10311598;28;20526;-66
2023/12/18 04:07:30;;;;;;;17.30;12.65;;;;;;;3.69;100.00;101999.75;10288069;28;20578;-66
2023/12/18 04:12:32;;;;;;;26.15;14.25;;;;;;;3.74;100.00;101992.63;10307050;28;20046;-67
2023/12/18 04:17:34;;;;;;;21.17;12.63;;;;;;;3.75;100.00;102004.88;10313593;28;20043;-66
2023/12/18 04:22:36;;;;;;;21.17;13.07;;;;;;;3.77;100.00;101997.81;10305167;28;20058;-67
2023/12/18 04:27:37;;;;;;;26.90;14.10;;;;;;;3.83;99.96;102002.91;10291056;28;20521;-67
2023/12/18 04:32:39;;;;;;;24.55;13.55;;;;;;;3.80;99.71;102015.28;10312318;28;20065;-66
2023/12/18 04:37:42;;;;;;;25.08;12.88;;;;;;;3.83;99.92;102002.91;10303292;28;20137;-66
2023/12/18 04:42:44;;;;;;;32.27;16.37;;;;;;;3.83;100.00;101996.81;10296956;28;20035;-66
2023/12/18 04:47:47;;;;;;;18.55;13.00;;;;;;;3.81;100.00;101988.06;10298057;28;20046;-66
2023/12/18 04:52:48;;;;;;;32.55;14.43;;;;;;;3.63;100.00;101973.56;10298096;28;20133;-66
2023/12/18 04:57:50;;;;;;;22.65;15.13;;;;;;;3.65;100.00;101979.69;10296882;28;20062;-65
2023/12/18 05:02:52;;;;;;;22.33;13.55;;;;;;;3.62;100.00;101980.59;10277459;28;20057;-67
2023/12/18 05:07:53;;;;;;;20.45;13.77;;;;;;;3.65;100.00;101977.91;10301212;28;20147;-67
2023/12/18 05:12:55;;;;;;;21.23;14.68;;;;;;;3.52;100.00;101965.91;10307943;28;20551;-66
2023/12/18 05:17:56;;;;;;;33.70;13.95;;;;;;;3.63;99.95;101984.09;10301391;28;20054;-66
2023/12/18 05:22:58;;;;;;;22.42;12.98;;;;;;;3.52;100.00;101993.09;10310079;28;20684;-66
2023/12/18 05:28:02;;;;;;;24.08;14.07;;;;;;;3.54;100.00;101988.69;10277100;28;20129;-66
2023/12/18 05:33:04;;;;;;;20.52;14.23;;;;;;;3.46;100.00;101977.44;10303120;28;20151;-67
2023/12/18 05:38:07;;;;;;;27.92;15.27;;;;;;;3.52;100.00;101985.22;10294113;28;20052;-66
2023/12/18 05:43:09;;;;;;;27.92;14.32;;;;;;;3.42;100.00;101996.00;10294520;28;20104;-67
2023/12/18 05:48:11;;;;;;;46.75;16.13;;;;;;;3.42;100.00;101988.09;10302791;28;20046;-67
2023/12/18 05:53:14;;;;;;;35.60;17.20;;;;;;;3.44;100.00;101974.00;10295142;28;20060;-66
2023/12/18 05:58:16;;;;;;;31.33;15.77;;;;;;;3.36;100.00;101971.56;10294514;28;20058;-66
2023/12/18 06:03:18;;;;;;;33.80;15.15;;;;;;;3.36;100.00;101981.19;10284490;28;20475;-66
2023/12/18 06:08:20;;;;;;;23.40;15.23;;;;;;;3.32;100.00;101983.03;10303550;28;20055;-66
2023/12/18 06:13:22;;;;;;;22.95;14.93;;;;;;;3.35;100.00;101990.88;10309139;28;20049;-66
2023/12/18 06:18:23;;;;;;;21.30;15.32;;;;;;;3.31;100.00;101983.06;10291721;28;20508;-66
2023/12/18 06:23:26;;;;;;;30.13;15.05;;;;;;;3.21;100.00;101963.13;10278459;28;20139;-65
2023/12/18 06:28:28;;;;;;;23.33;14.35;;;;;;;3.18;100.00;102004.41;10283235;28;20050;-65
2023/12/18 06:33:29;;;;;;;23.77;14.25;;;;;;;3.22;100.00;101984.13;10299234;28;20054;-66
2023/12/18 06:38:31;;;;;;;30.42;14.77;;;;;;;3.22;100.00;101992.03;10286633;28;20185;-67
2023/12/18 06:43:33;;;;;;;24.02;15.27;;;;;;;3.20;100.00;101999.13;10280437;28;20046;-67
2023/12/18 06:48:40;;;;;;;29.85;14.98;;;;;;;3.20;100.00;101999.13;10290550;28;20622;-67
2023/12/18 06:53:43;;;;;;;43.67;16.10;;;;;;;3.05;100.00;102008.19;10303038;28;20046;-66
2023/12/18 06:58:44;;;;;;;25.45;15.48;;;;;;;3.09;100.00;102001.97;10302966;28;20111;-65
2023/12/18 07:03:45;;;;;;;24.17;15.95;;;;;;;3.18;100.00;101982.47;10313669;28;20572;-66
2023/12/18 07:08:47;;;;;;;34.03;16.77;;;;;;;3.18;100.00;101983.34;10307185;28;20058;-66
2023/12/18 07:13:55;;;;;;;25.60;15.23;;;;;;;3.18;100.00;101993.88;10289667;28;20045;-65
2023/12/18 07:18:59;;;;;;;30.80;16.65;;;;;;;3.24;100.00;101987.59;10290914;28;20053;-65
2023/12/18 07:24:01;;;;;;;30.57;18.23;;;;;;;3.32;100.00;101990.09;10294215;28;20224;-66
2023/12/18 07:29:04;;;;;;;33.08;17.08;;;;;;;3.31;100.00;101999.72;10290164;28;20061;-65
2023/12/18 07:34:05;;;;;;;50.10;18.95;;;;;;;3.23;100.00;102011.31;10309882;28;20056;-64
2023/12/18 07:39:07;;;;;;;24.92;17.50;;;;;;;3.22;100.00;102009.59;10292991;28;20081;-65
2023/12/18 07:44:08;;;;;;;42.72;19.88;;;;;;;3.24;100.00;102013.06;10301835;28;20141;-64
2023/12/18 07:49:10;;;;;;;30.48;17.92;;;;;;;3.16;100.00;102014.09;10287129;28;20049;-63
2023/12/18 07:54:14;;;;;;;26.83;18.42;;;;;;;3.18;100.00;102004.41;10314310;28;20125;-63
2023/12/18 07:59:17;;;;;;;26.15;17.55;;;;;;;3.11;100.00;101992.28;10298171;28;20460;-64
2023/12/18 08:04:18;;;;;;;30.60;20.38;;;;;;;3.13;100.00;101993.09;10278764;28;20125;-64
2023/12/18 08:09:20;;;;;;;24.52;17.73;;;;;;;3.18;100.00;101999.16;10313573;28;20057;-64
2023/12/18 08:14:22;;;;;;;26.77;17.83;;;;;;;3.21;100.00;102010.50;10292685;28;20519;-64
2023/12/18 08:19:23;;;;;;;23.58;17.38;;;;;;;3.19;100.00;101990.31;10283636;28;20127;-65
2023/12/18 08:24:25;;;;;;;28.45;18.50;;;;;;;3.23;100.00;102001.69;10305261;28;20144;-64
2023/12/18 08:29:26;;;;;;;22.55;16.95;;;;;;;3.13;100.00;101968.56;10298656;28;20508;-63
2023/12/18 08:34:29;;;;;;;25.90;16.95;;;;;;;3.09;100.00;101980.94;10267905;28;20054;-66
2023/12/18 08:39:33;;;;;;;29.02;17.42;;;;;;;3.13;100.00;101997.50;10297026;28;20955;-65
2023/12/18 08:44:36;;;;;;;29.17;18.73;;;;;;;3.05;100.00;101981.88;10295631;28;20108;-63
2023/12/18 08:49:38;;;;;;;26.55;17.98;;;;;;;3.15;100.00;101972.91;10296162;28;20118;-64
2023/12/18 08:54:39;;;;;;;24.55;17.27;;;;;;;3.11;100.00;101973.84;10285063;28;20058;-62
2023/12/18 08:59:40;;;;;;;25.40;16.67;;;;;;;3.19;100.00;101973.69;10299705;28;20058;-63
2023/12/18 09:04:42;;;;;;;36.33;19.00;;;;;;;3.14;100.00;101986.94;10299775;28;20661;-65
2023/12/18 09:09:43;;;;;;;31.75;17.15;;;;;;;3.17;100.00;101989.50;10299616;28;20053;-65
2023/12/18 09:14:45;;;;;;;31.35;16.65;;;;;;;3.09;100.00;101986.19;10296057;28;20061;-65
2023/12/18 09:19:46;;;;;;;22.60;16.85;;;;;;;3.16;100.00;101982.50;10300065;28;20056;-63
2023/12/18 09:24:48;;;;;;;32.13;17.92;;;;;;;3.17;100.00;101996.56;10295210;28;20061;-65
2023/12/18 09:29:50;;;;;;;25.17;18.67;;;;;;;3.26;100.00;101990.19;10301012;28;20062;-64
2023/12/18 09:34:52;;;;;;;24.98;17.38;;;;;;;3.31;100.00;101986.56;10293847;28;20054;-63
2023/12/18 09:39:55;;;;;;;27.50;19.48;;;;;;;3.47;100.00;101978.34;10286613;28;25055;-64
2023/12/18 09:44:57;;;;;;;26.70;18.77;;;;;;;3.51;100.00;101980.88;10303082;28;20061;-64
2023/12/18 09:50:00;;;;;;;26.48;19.15;;;;;;;3.53;100.00;101973.78;10293286;28;20085;-65
2023/12/18 09:55:04;;;;;;;29.95;19.48;;;;;;;3.43;100.00;101969.63;10291580;28;20133;-64
2023/12/18 10:00:12;;;;;;;29.23;21.60;;;;;;;3.34;100.00;101961.94;10292209;28;20054;-64
2023/12/18 10:05:17;;;;;;;35.08;20.90;;;;;;;3.42;100.00;101969.66;10283927;28;20046;-64
2023/12/18 10:10:20;;;;;;;28.02;19.80;;;;;;;3.40;100.00;101963.59;10301478;28;20728;-63
2023/12/18 10:15:24;;;;;;;29.48;21.23;;;;;;;3.31;100.00;101957.59;10296119;28;20061;-68
2023/12/18 10:20:26;;;;;;;30.50;20.40;;;;;;;3.49;100.00;101961.59;10300269;28;20416;-63
2023/12/18 10:25:27;;;;;;;28.00;20.48;;;;;;;3.50;100.00;101951.94;10292884;28;20535;-63
2023/12/18 10:30:29;;;;;;;37.67;22.88;;;;;;;3.61;100.00;101964.84;10292154;28;20054;-64
2023/12/18 10:35:32;;;;;;;32.75;22.50;;;;;;;3.72;100.00;101952.25;10295259;28;20058;-65
2023/12/18 10:40:34;;;;;;;34.05;21.98;;;;;;;3.57;100.00;101950.84;10311123;28;20054;-63
2023/12/18 10:45:37;;;;;;;33.03;22.00;;;;;;;3.63;100.00;101945.44;10274149;28;20084;-67
2023/12/18 10:50:40;;;;;;;30.50;21.23;;;;;;;3.70;100.00;101933.00;10304497;28;20056;-65
2023/12/18 10:55:42;;;;;;;30.10;20.85;;;;;;;3.88;100.00;101921.13;10293933;28;20047;-64
2023/12/18 11:00:44;;;;;;;34.88;23.13;;;;;;;3.81;99.81;101925.69;10298959;28;20143;-65
2023/12/18 11:05:48;;;;;;;34.50;24.90;;;;;;;3.77;100.00;101916.16;10288706;28;20049;-63
2023/12/18 11:10:50;;;;;;;34.65;24.42;;;;;;;3.86;100.00;101913.28;10280968;28;20062;-63
2023/12/18 11:16:09;;;;;;;34.28;22.48;;;;;;;3.79;100.00;101905.56;10300645;28;20064;-64
2023/12/18 11:21:11;;;;;;;34.17;23.42;;;;;;;3.92;100.00;101900.84;10282918;28;20134;-62
2023/12/18 11:26:13;;;;;;;36.47;24.70;;;;;;;3.85;100.00;101905.41;10313166;28;20066;-61
2023/12/18 11:31:20;;;;;;;37.08;26.30;;;;;;;3.69;100.00;101865.41;10300846;28;20125;-62
2023/12/18 11:36:21;;;;;;;31.98;22.17;;;;;;;3.83;100.00;101897.53;10292298;28;20132;-63
2023/12/18 11:41:41;;;;;;;34.65;24.73;;;;;;;3.73;100.00;101885.50;10297756;28;20487;-63
2023/12/18 11:46:44;;;;;;;39.42;28.73;;;;;;;3.86;100.00;101872.91;10295925;28;20054;-60
2023/12/18 11:51:50;;;;;;;41.33;27.13;;;;;;;3.98;100.00;101874.31;10304883;28;20062;-61
2023/12/18 11:56:55;;;;;;;34.03;24.27;;;;;;;4.13;100.00;101866.00;10311395;28;20148;-65
2023/12/18 12:01:58;;;;;;;33.53;23.08;;;;;;;4.12;99.99;101858.16;10288273;28;20418;-63
2023/12/18 12:07:00;;;;;;;32.88;23.23;;;;;;;4.16;99.78;101855.38;10309951;28;20046;-61
2023/12/18 12:12:04;;;;;;;30.58;22.60;;;;;;;4.16;99.69;101852.75;10285645;28;20292;-61
2023/12/18 12:17:06;;;;;;;37.65;25.48;;;;;;;4.09;99.13;101830.09;10298040;28;20050;-64
2023/12/18 12:22:08;;;;;;;30.50;22.67;;;;;;;4.24;99.43;101828.81;10286387;28;20161;-63
2023/12/18 12:27:11;;;;;;;32.22;23.60;;;;;;;4.23;99.46;101820.03;10291442;28;20804;-63
2023/12/18 12:32:14;;;;;;;32.50;23.65;;;;;;;4.36;99.26;101811.75;10293227;28;20054;-62
2023/12/18 12:37:17;;;;;;;34.47;25.77;;;;;;;4.18;97.39;101807.88;10296052;28;20057;-62
2023/12/18 12:42:20;;;;;;;30.58;23.85;;;;;;;4.28;97.84;101803.19;10291542;28;20077;-63
2023/12/18 12:47:23;;;;;;;32.25;23.63;;;;;;;4.32;97.07;101808.34;10300153;28;20503;-62
2023/12/18 12:52:28;;;;;;;90.57;65.50;;;;;;;4.23;97.53;101800.69;10295106;28;20056;-62
2023/12/18 12:57:30;;;;;;;35.38;26.02;;;;;;;4.29;97.68;101778.56;10292611;28;20050;-64
2023/12/18 13:02:32;;;;;;;39.08;27.80;;;;;;;4.25;97.85;101770.75;10310028;28;20045;-62
2023/12/18 13:07:33;;;;;;;34.08;24.30;;;;;;;4.27;97.82;101775.13;10272340;28;20057;-63
2023/12/18 13:12:35;;;;;;;35.05;25.13;;;;;;;4.36;98.36;101772.22;10291989;28;20201;-62
2023/12/18 13:17:36;;;;;;;42.20;31.13;;;;;;;4.34;97.09;101760.84;10293870;28;20053;-65
2023/12/18 13:22:38;;;;;;;35.75;27.77;;;;;;;4.16;97.79;101755.22;10300979;28;20706;-64
2023/12/18 13:27:40;;;;;;;35.35;27.85;;;;;;;4.24;98.08;101755.84;10308724;28;20061;-63
2023/12/18 13:32:42;;;;;;;29.52;22.98;;;;;;;4.36;97.60;101761.66;10283500;28;20050;-64
2023/12/18 13:37:44;;;;;;;25.83;21.35;;;;;;;4.31;97.19;101756.53;10291966;28;20780;-62
2023/12/18 13:42:47;;;;;;;28.50;21.88;;;;;;;4.40;97.05;101758.88;10293142;28;20131;-64
2023/12/18 13:47:51;;;;;;;26.98;22.08;;;;;;;4.07;97.02;101715.97;10301064;28;20085;-62
2023/12/18 13:52:55;;;;;;;29.17;22.17;;;;;;;4.31;97.40;101755.66;10277638;28;20088;-62
2023/12/18 13:57:58;;;;;;;32.45;24.10;;;;;;;4.36;97.25;101743.22;10299157;28;20070;-63
2023/12/18 14:03:03;;;;;;;32.75;25.27;;;;;;;4.33;97.68;101738.88;10296612;28;20054;-60
2023/12/18 14:08:05;;;;;;;;;;;;;;;4.28;97.58;101730.28;10293388;28;20477;-63
2023/12/18 14:13:08;;;;;;;29.27;21.98;;;;;;;4.30;97.75;101727.59;10279843;28;19925;-64
2023/12/18 14:18:11;;;;;;;32.78;24.67;;;;;;;4.26;97.98;101716.25;10297687;28;20131;-64
2023/12/18 14:23:12;;;;;;;32.30;24.30;;;;;;;4.44;97.49;101722.72;10298223;28;20065;-62
2023/12/18 14:28:14;;;;;;;33.85;25.33;;;;;;;4.32;96.39;101704.66;10290042;28;20132;-63
2023/12/18 14:33:16;;;;;;;32.67;24.45;;;;;;;4.31;97.33;101718.75;10299439;28;20720;-63
2023/12/18 14:38:19;;;;;;;29.73;23.20;;;;;;;4.28;97.38;101724.13;10302947;28;20057;-65
2023/12/18 14:43:21;;;;;;;31.48;24.55;;;;;;;4.32;97.00;101725.75;10308203;28;20054;-62
2023/12/18 14:48:24;;;;;;;27.35;23.73;;;;;;;4.43;97.29;101723.66;10310454;28;20065;-61
2023/12/18 14:53:36;;;;;;;31.73;24.75;;;;;;;4.58;97.37;101712.63;10282797;28;20085;-62
2023/12/18 14:58:37;;;;;;;33.50;25.83;;;;;;;4.60;96.75;101726.59;10300853;28;20132;-63
2023/12/18 15:03:38;;;;;;;30.08;23.63;;;;;;;4.76;97.23;101731.41;10287631;28;20682;-63
2023/12/18 15:08:40;;;;;;;29.83;25.05;;;;;;;4.84;96.08;101724.09;10310923;28;20527;-62
2023/12/18 15:13:42;;;;;;;32.85;25.90;;;;;;;4.75;94.85;101708.56;10282313;28;20067;-64
2023/12/18 15:18:43;;;;;;;28.88;23.05;;;;;;;4.70;94.73;101721.91;10302166;28;20141;-62
2023/12/18 15:23:47;;;;;;;27.08;22.15;;;;;;;4.73;95.85;101720.97;10285351;28;20057;-63
2023/12/18 15:28:49;;;;;;;20.47;16.17;;;;;;;4.75;95.34;101692.75;10304614;28;20054;-62
2023/12/18 15:33:50;;;;;;;28.77;22.98;;;;;;;4.50;95.28;101692.69;10298040;28;20574;-63
2023/12/18 15:38:52;;;;;;;28.88;23.05;;;;;;;4.40;95.62;101687.69;10296183;28;20066;-64
2023/12/18 15:43:53;;;;;;;30.45;23.90;;;;;;;4.34;96.19;101677.34;10310510;28;20148;-63
2023/12/18 15:48:55;;;;;;;28.00;22.80;;;;;;;4.36;96.96;101670.25;10281096;28;20519;-63
2023/12/18 15:53:59;;;;;;;28.83;23.40;;;;;;;4.41;97.17;101675.38;10296917;28;20061;-62
2023/12/18 15:59:01;;;;;;;30.25;22.85;;;;;;;4.47;97.32;101675.16;10280648;28;20069;-63
2023/12/18 16:04:02;;;;;;;30.63;27.13;;;;;;;4.42;96.73;101685.00;10303119;28;20112;-63
2023/12/18 16:09:04;;;;;;;29.98;24.02;;;;;;;4.35;96.10;101670.28;10304442;28;20046;-63
2023/12/18 16:14:06;;;;;;;31.70;25.45;;;;;;;4.32;96.69;101681.78;10290772;28;20058;-63
2023/12/18 16:19:08;;;;;;;29.67;23.95;;;;;;;4.35;96.87;101670.28;10283539;28;20610;-64
2023/12/18 16:24:11;;;;;;;33.75;26.35;;;;;;;4.40;96.55;101676.31;10308648;28;20061;-63
2023/12/18 16:29:12;;;;;;;31.77;24.25;;;;;;;4.40;96.40;101677.16;10297947;28;20085;-64
2023/12/18 16:34:14;;;;;;;33.47;27.05;;;;;;;4.37;96.59;101665.84;10275647;28;20097;-62
2023/12/18 16:39:16;;;;;;;32.28;23.80;;;;;;;4.34;97.25;101658.00;10293030;28;20046;-62
2023/12/18 16:44:17;;;;;;;27.77;22.75;;;;;;;4.40;96.90;101661.34;10294260;28;20504;-64
2023/12/18 16:49:19;;;;;;;31.20;25.38;;;;;;;4.45;97.01;101655.91;10293687;28;20395;-62
2023/12/18 16:54:22;;;;;;;30.30;22.70;;;;;;;4.59;97.26;101666.88;10292223;28;20062;-63
2023/12/18 16:59:24;;;;;;;29.98;22.52;;;;;;;4.46;96.46;101652.38;11118445;22;20061;-71
2023/12/18 17:04:47;;;;;;;25.67;19.15;;;;;;;4.34;100.00;101645.72;10287859;28;20125;-66
2023/12/18 17:09:48;;;;;;;28.08;21.40;;;;;;;4.71;99.26;101649.75;10338194;28;20522;-66
2023/12/18 17:14:50;;;;;;;28.25;22.27;;;;;;;4.89;96.89;101653.53;10338172;28;20220;-66
2023/12/18 17:19:52;;;;;;;30.60;22.38;;;;;;;4.43;96.80;101636.66;10339893;28;20151;-66
2023/12/18 17:24:53;;;;;;;31.23;24.65;;;;;;;4.68;97.06;101638.47;10351721;28;20465;-64
2023/12/18 17:29:55;;;;;;;36.67;29.25;;;;;;;4.78;95.50;101646.00;10348752;28;20050;-66
2023/12/18 17:34:58;;;;;;;34.25;26.55;;;;;;;4.75;95.44;101643.47;10336839;28;20053;-67
2023/12/18 17:40:00;;;;;;;36.95;30.30;;;;;;;4.76;95.49;101642.56;10352002;28;20712;-66
2023/12/18 17:45:03;;;;;;;34.17;24.50;;;;;;;4.68;95.59;101620.00;10350440;28;20061;-64
2023/12/18 17:50:05;;;;;;;37.50;29.30;;;;;;;4.70;95.64;101637.50;10340707;28;20515;-67
2023/12/18 17:55:10;;;;;;;32.45;25.35;;;;;;;4.69;95.96;101635.75;10344093;28;21057;-68
2023/12/18 18:00:13;;;;;;;31.77;24.40;;;;;;;4.45;95.96;101629.53;10341880;28;20139;-67
2023/12/18 18:05:16;;;;;;;35.80;25.33;;;;;;;4.19;97.28;101596.97;10343966;28;20053;-65
2023/12/18 18:10:17;;;;;;;31.75;23.67;;;;;;;4.28;98.27;101614.28;10345141;28;20406;-66
2023/12/18 18:15:20;;;;;;;34.13;24.45;;;;;;;4.19;98.01;101596.97;10342278;28;20411;-67
2023/12/18 18:20:24;;;;;;;31.73;24.97;;;;;;;4.20;98.31;101601.34;10350902;28;20517;-66
2023/12/18 18:25:25;;;;;;;41.65;31.67;;;;;;;4.21;98.23;101575.84;10343354;28;20157;-66
2023/12/18 18:30:27;;;;;;;36.63;26.20;;;;;;;4.01;98.56;101551.00;10349721;28;20060;-66
2023/12/18 18:35:29;;;;;;;35.60;27.17;;;;;;;4.11;98.21;101596.34;10351325;28;20077;-68
2023/12/18 18:40:30;;;;;;;28.98;22.35;;;;;;;4.12;98.24;101608.63;10338872;28;20561;-71
2023/12/18 18:45:33;;;;;;;52.10;38.35;;;;;;;4.05;98.07;101597.44;10344916;28;20188;-65
2023/12/18 18:50:35;;;;;;;36.70;23.73;;;;;;;4.03;98.91;101598.38;10343249;28;20046;-65
2023/12/18 18:55:38;;;;;;;35.55;24.33;;;;;;;4.11;99.22;101603.41;10347286;28;20054;-65
2023/12/18 19:00:42;;;;;;;35.97;24.30;;;;;;;4.15;98.78;101603.25;10344102;28;20081;-65
2023/12/18 19:05:46;;;;;;;46.17;31.47;;;;;;;4.26;99.07;101589.72;10342088;28;20060;-65
2023/12/18 19:10:48;;;;;;;35.55;25.40;;;;;;;4.18;98.42;101571.53;10334384;28;20291;-64
2023/12/18 19:15:50;;;;;;;36.63;24.33;;;;;;;4.06;98.74;101551.72;10336335;28;20058;-65
2023/12/18 19:20:53;;;;;;;32.58;24.17;;;;;;;4.05;98.86;101549.13;10353135;28;20053;-65
2023/12/18 19:25:55;;;;;;;33.03;25.73;;;;;;;4.02;98.90;101554.50;10353893;28;20054;-65
2023/12/18 19:30:56;;;;;;;32.78;22.58;;;;;;;3.89;99.15;101565.44;10352991;28;20431;-66
2023/12/18 19:36:06;;;;;;;30.38;22.92;;;;;;;3.85;100.00;101569.06;10350861;28;20500;-64
2023/12/18 19:41:11;;;;;;;29.73;22.77;;;;;;;3.89;100.00;101586.50;10349279;28;20056;-66
2023/12/18 19:46:12;;;;;;;32.28;22.75;;;;;;;4.12;100.00;101598.09;10346082;28;20049;-65
2023/12/18 19:51:14;;;;;;;35.20;23.60;;;;;;;4.14;99.35;101600.66;10346047;28;20049;-66
2023/12/18 19:56:16;;;;;;;43.03;31.35;;;;;;;4.12;99.30;101597.25;10359160;28;20049;-65
2023/12/18 20:01:18;;;;;;;30.75;23.13;;;;;;;4.15;99.10;101603.25;10330789;28;20077;-64
2023/12/18 20:06:20;;;;;;;33.40;23.10;;;;;;;4.20;98.98;101603.09;10355183;28;20049;-66
2023/12/18 20:11:22;;;;;;;29.80;22.13;;;;;;;4.12;98.96;101584.91;10356001;28;20057;-65
2023/12/18 20:16:23;;;;;;;28.05;21.15;;;;;;;4.09;99.58;101581.53;10337654;28;20551;-66
2023/12/18 20:21:26;;;;;;;32.53;22.35;;;;;;;4.17;99.21;101561.88;10349123;28;20564;-65
2023/12/18 20:26:29;;;;;;;30.52;22.25;;;;;;;4.11;99.49;101558.59;10335829;28;20057;-64
2023/12/18 20:31:30;;;;;;;35.95;23.67;;;;;;;4.06;99.47;101550.84;10346892;28;20061;-65
2023/12/18 20:36:32;;;;;;;33.70;23.20;;;;;;;4.05;100.00;101554.38;10328948;28;20056;-66
2023/12/18 20:41:35;;;;;;;32.67;23.88;;;;;;;4.14;100.00;101547.97;10350555;28;20733;-66
2023/12/18 20:46:38;;;;;;;32.70;23.45;;;;;;;4.06;100.00;101522.72;10342602;28;20143;-66
2023/12/18 20:51:41;;;;;;;36.03;24.48;;;;;;;3.94;100.00;101514.38;10360476;28;20042;-64
2023/12/18 20:56:45;;;;;;;;;;;;;;;3.89;100.00;101517.16;10347844;28;20041;-66
2023/12/18 21:01:48;;;;;;;32.35;22.40;;;;;;;3.98;100.00;101515.97;10336827;28;19921;-66
2023/12/18 21:06:49;;;;;;;30.33;22.27;;;;;;;3.94;100.00;101498.56;10347255;28;20046;-70
2023/12/18 21:11:54;;;;;;;30.42;22.30;;;;;;;3.95;100.00;101479.19;10328713;28;20144;-69
2023/12/18 21:16:55;;;;;;;30.40;20.33;;;;;;;3.97;100.00;101501.09;10349348;28;20155;-65
2023/12/18 21:21:56;;;;;;;29.48;21.17;;;;;;;3.94;100.00;101488.03;10347373;28;20053;-65
2023/12/18 21:27:05;;;;;;;31.00;21.65;;;;;;;3.81;100.00;101471.75;10351642;28;20062;-66
2023/12/18 21:32:08;;;;;;;28.00;19.88;;;;;;;3.94;100.00;101482.75;10352677;28;20053;-65
2023/12/18 21:37:10;;;;;;;28.08;22.58;;;;;;;3.96;100.00;101465.97;10350644;28;20054;-65
2023/12/18 21:42:12;;;;;;;30.38;21.77;;;;;;;3.89;100.00;101454.78;10346454;28;20057;-65
2023/12/18 21:47:13;;;;;;;27.60;21.15;;;;;;;3.87;100.00;101458.38;10338383;28;20396;-64
2023/12/18 21:52:15;;;;;;;24.60;19.35;;;;;;;3.86;100.00;101460.16;10361692;28;20107;-64
2023/12/18 21:57:16;;;;;;;25.55;19.70;;;;;;;3.93;100.00;101479.25;10340230;28;20119;-64
2023/12/18 22:02:18;;;;;;;25.52;18.98;;;;;;;4.06;99.75;101461.25;10339231;28;20099;-65
2023/12/18 22:07:19;;;;;;;27.00;19.90;;;;;;;4.06;99.90;101462.09;10353863;28;20482;-64
2023/12/18 22:12:22;;;;;;;25.55;17.65;;;;;;;4.17;99.75;101464.38;10347145;28;20477;-64
2023/12/18 22:17:23;;;;;;;20.67;16.10;;;;;;;4.21;98.63;101462.50;10326408;28;20659;-64
2023/12/18 22:22:24;;;;;;;22.63;17.27;;;;;;;4.23;98.25;101448.38;10342927;28;20049;-64
2023/12/18 22:27:26;;;;;;;22.60;17.35;;;;;;;4.18;97.50;101442.38;10344739;28;20073;-64
2023/12/18 22:32:29;;;;;;;19.98;16.52;;;;;;;3.84;97.80;101388.25;10341135;28;20066;-65
2023/12/18 22:37:31;;;;;;;21.30;18.60;;;;;;;3.93;98.80;101425.69;10344284;28;20052;-65
2023/12/18 22:42:32;;;;;;;18.88;16.38;;;;;;;4.02;99.18;101433.28;10342958;28;20049;-64
2023/12/18 22:47:34;;;;;;;19.45;16.30;;;;;;;4.15;99.04;101434.59;10344717;28;21019;-64